Catawba Heights, North Carolina
Current Conditions -  °F | °C
As of 8:52 AM on Saturday 25 Oct 2014 (Local Time) from KCLT Reporting Station
Few Clouds Few Clouds  
Wind Chill: 46°   Ceiling: Unl
Heat Index: 46°   Visibility: 10mi
Dew Point: 42°   Wind: 3mph
Humidity: 86%   Direction: 330°NNW
Pressure: 30.05"   Gusts: NA
Location:  35.2342°N, 81.041°W
Report Text: KCLT 251252Z 33003KT 10SM FEW250 08/06 A3005 RMK AO2 SLP176 T00780056
Loading
Personal Weather Stations






























Interactive Weather Map New forecast layout! Learn more

10-Day Weather Forecast

Advertisements
Track Severe Weather on mobile